Mako, Hungary
Current Conditions -  °F | °C
As of 6:15 AM on Wednesday 22 Oct 2014 (Local Time) from LHUD Reporting Station
Rain Showers Rain Showers  
Wind Chill: 50°   Ceiling: 2600
Heat Index: 50°   Visibility: 2.5mi
Dew Point: 48°   Wind: 26mph
Humidity: 94%   Direction: 310°NW
Pressure: 29.56"   Gusts: 40mph
Location:  46.22°N, 20.47°E
Report Text: LHUD 220415Z 31023G35KT 4000 SHRA SCT008 BKN026CB 10/09 Q1001
Loading
Personal Weather Stations






























Interactive Weather Map
Tropical Storm Tracking
New forecast layout! Learn more

10-Day Weather Forecast

Advertisements
Track Severe Weather on mobile